createdAt,value
2023-05-09T00:01:48.651Z,2.42
2023-05-09T00:04:16.389Z,2.38
2023-05-09T00:06:43.958Z,2.90
2023-05-09T00:09:12.403Z,2.97
2023-05-09T00:11:39.899Z,3.35
2023-05-09T00:14:07.795Z,6.30
2023-05-09T00:16:36.662Z,2.45
2023-05-09T00:19:04.636Z,2.33
2023-05-09T00:21:32.129Z,2.20
2023-05-09T00:24:00.335Z,3.85
2023-05-09T00:26:28.230Z,3.83
2023-05-09T00:28:55.717Z,2.42
2023-05-09T00:31:23.228Z,2.00
2023-05-09T00:33:50.869Z,2.05
2023-05-09T00:36:18.322Z,2.28
2023-05-09T00:38:45.909Z,2.75
2023-05-09T00:41:13.344Z,5.78
2023-05-09T00:43:40.858Z,2.63
2023-05-09T00:46:08.993Z,3.42
2023-05-09T00:48:36.584Z,2.03
2023-05-09T00:51:04.812Z,1.70
2023-05-09T00:53:32.340Z,3.28
2023-05-09T00:56:01.121Z,2.25
2023-05-09T00:58:28.942Z,2.25
2023-05-09T01:00:56.451Z,2.63
2023-05-09T01:03:24.246Z,3.63
2023-05-09T01:05:55.947Z,3.67
2023-05-09T01:08:29.330Z,3.88
2023-05-09T01:11:15.583Z,3.05
2023-05-09T01:14:08.294Z,2.22
2023-05-09T01:16:38.497Z,1.92
2023-05-09T01:19:17.698Z,2.23
2023-05-09T01:21:47.631Z,2.10
2023-05-09T01:24:29.688Z,1.70
2023-05-09T01:27:06.785Z,2.72
2023-05-09T01:29:38.928Z,3.03
2023-05-09T01:32:11.173Z,4.85
2023-05-09T01:34:39.516Z,2.47
2023-05-09T01:37:07.810Z,3.20
2023-05-09T01:39:36.851Z,3.17
2023-05-09T01:42:05.234Z,2.97
2023-05-09T01:44:34.511Z,2.22
2023-05-09T01:47:02.342Z,2.40
2023-05-09T01:49:31.625Z,2.83
2023-05-09T01:52:00.033Z,2.15
2023-05-09T01:54:28.148Z,1.73
2023-05-09T01:56:56.362Z,2.72
2023-05-09T01:59:24.059Z,2.60
2023-05-09T02:01:52.481Z,2.65
2023-05-09T02:04:20.577Z,4.05
2023-05-09T02:06:51.165Z,2.80
2023-05-09T02:09:22.507Z,4.10
2023-05-09T02:11:50.176Z,3.13
2023-05-09T02:14:18.098Z,2.20
2023-05-09T02:16:45.715Z,2.03
2023-05-09T02:19:13.163Z,3.72
2023-05-09T02:21:41.105Z,2.53
2023-05-09T02:24:08.652Z,3.17
2023-05-09T02:26:36.676Z,4.57
2023-05-09T02:29:06.318Z,5.15
2023-05-09T02:31:34.655Z,2.80
2023-05-09T02:34:03.221Z,3.55
2023-05-09T02:36:31.486Z,3.88
2023-05-09T02:38:59.135Z,3.42
2023-05-09T02:41:28.837Z,2.88
2023-05-09T02:43:56.341Z,2.67
2023-05-09T02:46:23.853Z,2.70
2023-05-09T02:48:52.070Z,2.83
2023-05-09T02:51:19.572Z,3.45
2023-05-09T02:53:47.133Z,3.53
2023-05-09T02:56:14.892Z,5.47
2023-05-09T02:58:42.351Z,2.85
2023-05-09T03:01:09.846Z,2.80
2023-05-09T03:03:37.955Z,3.03
2023-05-09T03:06:06.211Z,3.58
2023-05-09T03:08:33.740Z,5.30
2023-05-09T03:11:01.475Z,3.25
2023-05-09T03:13:29.078Z,2.97
2023-05-09T03:15:57.974Z,2.75
2023-05-09T03:18:25.852Z,4.32
2023-05-09T03:20:53.593Z,4.03
2023-05-09T03:23:21.098Z,2.75
2023-05-09T03:25:48.553Z,2.05
2023-05-09T03:28:16.850Z,2.65
2023-05-09T03:30:44.681Z,3.17
2023-05-09T03:33:15.230Z,5.82
2023-05-09T03:35:42.889Z,4.40
2023-05-09T03:38:10.695Z,3.80
2023-05-09T03:40:39.012Z,3.40
2023-05-09T03:43:11.037Z,4.00
2023-05-09T03:45:39.151Z,4.45
2023-05-09T03:48:19.364Z,7.35
2023-05-09T03:50:57.034Z,5.05
2023-05-09T03:53:27.360Z,3.90
2023-05-09T03:55:55.736Z,3.30
2023-05-09T03:58:23.956Z,4.15
2023-05-09T04:00:51.998Z,4.45
2023-05-09T04:03:31.276Z,4.07
2023-05-09T04:05:59.114Z,4.25
2023-05-09T04:08:33.437Z,3.78
2023-05-09T04:11:02.321Z,4.05
2023-05-09T04:13:31.815Z,4.15
2023-05-09T04:16:02.182Z,6.27
2023-05-09T04:18:32.158Z,5.55
2023-05-09T04:20:59.685Z,6.25
2023-05-09T04:23:27.386Z,6.65
2023-05-09T04:28:26.032Z,5.20
2023-05-09T04:30:54.262Z,4.85
2023-05-09T04:33:24.150Z,9.75
2023-05-09T04:35:52.728Z,3.80
2023-05-09T04:38:21.271Z,5.50
2023-05-09T04:40:49.184Z,5.35
2023-05-09T04:43:16.700Z,3.58
2023-05-09T04:45:45.394Z,5.75
2023-05-09T04:48:13.183Z,5.07
2023-05-09T04:50:41.644Z,3.78
2023-05-09T04:53:09.307Z,5.53
2023-05-09T04:55:37.143Z,8.18
2023-05-09T04:58:04.752Z,4.60
2023-05-09T05:00:32.664Z,4.25
2023-05-09T05:03:00.282Z,2.90
2023-05-09T05:05:29.770Z,2.92
2023-05-09T05:07:57.940Z,3.65
2023-05-09T05:10:30.832Z,2.13
2023-05-09T05:13:06.850Z,3.40
2023-05-09T05:15:36.192Z,2.92
2023-05-09T05:18:04.344Z,4.50
2023-05-09T05:20:34.857Z,3.05
2023-05-09T05:23:02.487Z,3.65
2023-05-09T05:25:29.923Z,3.50
2023-05-09T05:27:58.451Z,5.15
2023-05-09T05:30:25.965Z,4.45
2023-05-09T05:32:53.488Z,4.18
2023-05-09T05:35:23.361Z,4.18
2023-05-09T05:37:51.750Z,4.20
2023-05-09T05:40:20.059Z,3.92
2023-05-09T05:42:49.490Z,5.43
2023-05-09T05:45:17.464Z,7.50
2023-05-09T05:47:49.517Z,3.47
2023-05-09T05:50:17.783Z,6.53
2023-05-09T05:52:45.270Z,3.90
2023-05-09T05:55:16.049Z,5.22
2023-05-09T05:57:43.823Z,5.03
2023-05-09T06:00:15.123Z,4.85
2023-05-09T06:02:50.519Z,3.92
2023-05-09T06:05:29.469Z,4.25
2023-05-09T06:07:57.121Z,10.07
2023-05-09T06:10:24.642Z,9.18
2023-05-09T06:12:52.452Z,4.80
2023-05-09T06:15:19.897Z,6.20
2023-05-09T06:17:50.524Z,5.75
2023-05-09T06:20:18.164Z,6.07
2023-05-09T06:22:45.686Z,5.15
2023-05-09T06:25:13.316Z,8.88
2023-05-09T06:27:41.019Z,5.50
2023-05-09T06:30:23.985Z,8.32
2023-05-09T06:32:52.840Z,7.75
2023-05-09T06:35:20.741Z,7.30
2023-05-09T06:38:13.254Z,11.95
2023-05-09T06:40:44.917Z,6.75
2023-05-09T06:43:12.579Z,6.03
2023-05-09T06:45:40.229Z,5.70
2023-05-09T06:48:07.884Z,9.00
2023-05-09T06:50:38.885Z,7.13
2023-05-09T06:55:33.853Z,8.02
2023-05-09T06:58:01.445Z,7.13
2023-05-09T07:00:29.187Z,7.05
2023-05-09T07:02:56.757Z,7.43
2023-05-09T07:05:24.340Z,10.80
2023-05-09T07:07:52.000Z,6.50
2023-05-09T07:10:20.230Z,8.15
2023-05-09T07:12:47.976Z,9.25
2023-05-09T07:15:25.690Z,6.65
2023-05-09T07:18:00.526Z,8.20
2023-05-09T07:20:28.430Z,5.80
2023-05-09T07:22:58.321Z,5.93
2023-05-09T07:25:26.152Z,4.73
2023-05-09T07:27:53.810Z,4.72
2023-05-09T07:30:21.351Z,8.70
2023-05-09T07:32:48.924Z,5.30
2023-05-09T07:35:16.756Z,5.30
2023-05-09T07:37:44.523Z,6.28
2023-05-09T07:40:12.654Z,5.32
2023-05-09T07:42:40.664Z,4.88
2023-05-09T07:45:08.480Z,4.63
2023-05-09T07:47:36.093Z,7.72
2023-05-09T07:50:03.798Z,4.80
2023-05-09T07:52:31.597Z,4.50
2023-05-09T07:55:00.026Z,4.18
2023-05-09T07:57:27.655Z,4.32
2023-05-09T07:59:55.332Z,4.30
2023-05-09T08:02:24.014Z,3.15
2023-05-09T08:04:51.780Z,2.90
2023-05-09T08:07:19.330Z,3.83
2023-05-09T08:09:46.908Z,3.30
2023-05-09T08:12:14.601Z,2.47
2023-05-09T08:14:42.159Z,4.65
2023-05-09T08:17:09.832Z,3.72
2023-05-09T08:19:37.326Z,2.55
2023-05-09T08:22:04.789Z,2.78
2023-05-09T08:24:32.680Z,3.58
2023-05-09T08:27:00.770Z,1.08
2023-05-09T08:29:51.348Z,4.68
2023-05-09T08:32:20.122Z,2.33
2023-05-09T08:34:47.784Z,2.03
2023-05-09T08:37:15.695Z,2.25
2023-05-09T08:39:43.489Z,1.70
2023-05-09T08:42:11.187Z,2.15
2023-05-09T08:44:38.738Z,1.90
2023-05-09T08:47:06.477Z,1.67
2023-05-09T08:49:34.282Z,2.35
2023-05-09T08:52:02.296Z,2.35
2023-05-09T08:54:30.376Z,2.40
2023-05-09T08:56:58.014Z,1.35
2023-05-09T08:59:25.866Z,2.58
2023-05-09T09:01:54.793Z,1.33
2023-05-09T09:04:26.062Z,1.80
2023-05-09T09:06:54.492Z,3.85
2023-05-09T09:09:23.115Z,1.85
2023-05-09T09:11:53.175Z,1.35
2023-05-09T09:14:25.553Z,2.83
2023-05-09T09:16:53.856Z,1.48
2023-05-09T09:19:23.083Z,1.35
2023-05-09T09:21:53.753Z,2.15
2023-05-09T09:26:49.289Z,2.78
2023-05-09T09:29:17.347Z,2.85
2023-05-09T09:31:48.788Z,1.65
2023-05-09T09:34:21.271Z,3.25
2023-05-09T09:36:49.406Z,3.58
2023-05-09T09:39:17.237Z,1.38
2023-05-09T09:41:45.046Z,4.97
2023-05-09T09:44:13.969Z,1.52
2023-05-09T09:46:50.096Z,2.03
2023-05-09T09:49:22.198Z,1.15
2023-05-09T09:51:53.590Z,3.00
2023-05-09T09:54:21.452Z,4.32
2023-05-09T09:56:49.976Z,2.38
2023-05-09T09:59:18.824Z,2.10
2023-05-09T10:01:58.262Z,1.88
2023-05-09T10:04:26.392Z,3.42
2023-05-09T10:06:54.986Z,2.15
2023-05-09T10:09:23.746Z,2.65
2023-05-09T10:11:52.326Z,3.15
2023-05-09T10:14:21.517Z,1.92
2023-05-09T10:16:49.590Z,1.65
2023-05-09T10:19:19.144Z,1.98
2023-05-09T10:21:53.924Z,1.65
2023-05-09T10:24:29.179Z,1.70
2023-05-09T10:27:00.552Z,1.58
2023-05-09T10:29:28.318Z,1.63
2023-05-09T10:31:57.887Z,1.40
2023-05-09T10:34:26.094Z,1.77
2023-05-09T10:36:54.810Z,2.08
2023-05-09T10:39:23.049Z,2.30
2023-05-09T10:41:50.706Z,1.50
2023-05-09T10:44:19.114Z,1.33
2023-05-09T10:46:46.657Z,2.45
2023-05-09T10:49:14.645Z,1.90
2023-05-09T10:51:42.096Z,1.80
2023-05-09T10:54:26.482Z,2.25
2023-05-09T10:56:54.736Z,2.67
2023-05-09T10:59:35.622Z,4.53
2023-05-09T11:02:03.552Z,2.47
2023-05-09T11:04:32.464Z,1.98
2023-05-09T11:07:00.837Z,3.78
2023-05-09T11:09:28.574Z,1.60
2023-05-09T11:11:57.891Z,1.30
2023-05-09T11:14:31.581Z,0.95
2023-05-09T11:17:06.632Z,1.02
2023-05-09T11:19:36.832Z,1.25
2023-05-09T11:22:17.724Z,1.33
2023-05-09T11:24:46.944Z,1.02
2023-05-09T11:27:17.515Z,3.92
2023-05-09T11:32:15.179Z,1.17
2023-05-09T11:34:44.801Z,1.40
2023-05-09T11:37:17.890Z,1.05
2023-05-09T11:39:58.628Z,4.95
2023-05-09T11:42:28.050Z,0.82
2023-05-09T11:44:56.496Z,1.67
2023-05-09T11:47:24.105Z,1.58
2023-05-09T11:49:51.784Z,0.73
2023-05-09T11:52:21.620Z,2.20
2023-05-09T11:54:52.101Z,1.38
2023-05-09T11:57:19.781Z,1.50
2023-05-09T11:59:48.865Z,1.05
2023-05-09T12:02:16.712Z,2.35
2023-05-09T12:04:44.387Z,3.08
2023-05-09T12:07:13.026Z,1.00
2023-05-09T12:09:40.691Z,1.83
2023-05-09T12:12:11.908Z,1.20
2023-05-09T12:14:39.985Z,0.95
2023-05-09T12:17:08.279Z,1.80
2023-05-09T12:19:36.707Z,1.77
2023-05-09T12:22:06.600Z,2.28
2023-05-09T12:24:36.777Z,1.25
2023-05-09T12:27:04.902Z,1.20
2023-05-09T12:29:32.510Z,2.53
2023-05-09T12:32:00.813Z,1.17
2023-05-09T12:34:28.443Z,1.30
2023-05-09T12:36:56.051Z,3.00
2023-05-09T12:39:24.430Z,0.98
2023-05-09T12:42:01.134Z,1.40
2023-05-09T12:44:30.007Z,0.60
2023-05-09T12:47:02.860Z,4.15
2023-05-09T12:49:31.230Z,1.20
2023-05-09T12:52:01.633Z,1.80
2023-05-09T12:54:31.006Z,1.15
2023-05-09T12:56:59.101Z,0.75
2023-05-09T12:59:27.378Z,2.15
2023-05-09T13:01:58.813Z,2.38
2023-05-09T13:04:27.655Z,1.75
2023-05-09T13:06:57.599Z,1.52
2023-05-09T13:09:25.955Z,1.77
2023-05-09T13:11:54.456Z,3.20
2023-05-09T13:14:23.466Z,1.73
2023-05-09T13:16:51.079Z,1.42
2023-05-09T13:19:18.584Z,2.50
2023-05-09T13:21:46.192Z,1.83
2023-05-09T13:24:13.763Z,1.00
2023-05-09T13:26:41.318Z,1.55
2023-05-09T13:29:08.791Z,1.13
2023-05-09T13:31:36.333Z,1.15
2023-05-09T13:34:03.842Z,3.25
2023-05-09T13:36:32.503Z,1.45
2023-05-09T13:39:00.039Z,1.20
2023-05-09T13:41:27.622Z,1.58
2023-05-09T13:43:55.201Z,1.55
2023-05-09T13:46:22.821Z,2.05
2023-05-09T13:48:50.432Z,1.95
2023-05-09T13:51:17.959Z,1.58
2023-05-09T13:53:45.532Z,2.95
2023-05-09T13:56:13.082Z,2.35
2023-05-09T13:58:40.544Z,2.80
2023-05-09T14:01:08.158Z,2.70
2023-05-09T14:03:35.898Z,7.93
2023-05-09T14:06:04.208Z,4.18
2023-05-09T14:08:32.211Z,4.00
2023-05-09T14:10:59.785Z,5.05
2023-05-09T14:13:27.344Z,4.97
2023-05-09T14:15:54.909Z,3.30
2023-05-09T14:18:22.387Z,3.90
2023-05-09T14:20:50.069Z,3.30
2023-05-09T14:23:17.594Z,3.17
2023-05-09T14:25:45.152Z,3.60
2023-05-09T14:28:12.794Z,3.88
2023-05-09T14:30:40.273Z,4.90
2023-05-09T14:33:07.856Z,5.47
2023-05-09T14:35:41.882Z,3.20
2023-05-09T14:38:09.487Z,3.58
2023-05-09T14:40:37.032Z,3.22
2023-05-09T14:43:04.642Z,4.13
2023-05-09T14:45:32.896Z,4.13
2023-05-09T14:48:01.176Z,4.22
2023-05-09T14:50:28.815Z,2.92
2023-05-09T14:52:56.353Z,1.27
2023-05-09T14:55:23.902Z,5.72
2023-05-09T14:57:51.472Z,1.77
2023-05-09T15:00:21.674Z,1.38
2023-05-09T15:02:50.587Z,1.70
2023-05-09T15:05:18.391Z,2.35
2023-05-09T15:07:45.994Z,2.10
2023-05-09T15:10:13.700Z,2.80
2023-05-09T15:12:41.477Z,2.47
2023-05-09T15:15:15.223Z,3.40
2023-05-09T15:17:43.623Z,2.10
2023-05-09T15:20:12.160Z,2.75
2023-05-09T15:22:39.834Z,3.53
2023-05-09T15:25:07.556Z,2.30
2023-05-09T15:27:35.312Z,3.17
2023-05-09T15:30:03.054Z,2.72
2023-05-09T15:32:30.538Z,3.20
2023-05-09T15:34:58.033Z,2.58
2023-05-09T15:37:25.640Z,2.38
2023-05-09T15:39:53.334Z,2.90
2023-05-09T15:42:20.866Z,3.72
2023-05-09T15:44:48.415Z,2.40
2023-05-09T15:47:15.983Z,1.73
2023-05-09T15:49:43.477Z,1.90
2023-05-09T15:52:10.988Z,2.45
2023-05-09T15:54:39.004Z,3.03
2023-05-09T15:57:07.163Z,2.40
2023-05-09T15:59:34.689Z,3.13
2023-05-09T16:02:02.325Z,2.78
2023-05-09T16:04:29.950Z,2.30
2023-05-09T16:06:57.583Z,2.22
2023-05-09T16:09:25.461Z,3.72
2023-05-09T16:11:52.954Z,2.90
2023-05-09T16:14:20.631Z,2.70
2023-05-09T16:16:50.446Z,3.63
2023-05-09T16:19:17.992Z,2.58
2023-05-09T16:21:48.543Z,2.05
2023-05-09T16:24:16.336Z,2.95
2023-05-09T16:26:43.840Z,4.22
2023-05-09T16:29:12.661Z,2.90
2023-05-09T16:31:40.850Z,3.35
2023-05-09T16:34:08.478Z,3.30
2023-05-09T16:36:37.599Z,4.30
2023-05-09T16:39:05.186Z,4.20
2023-05-09T16:41:32.812Z,3.35
2023-05-09T16:44:00.523Z,3.83
2023-05-09T16:46:28.112Z,4.40
2023-05-09T16:48:56.144Z,4.03
2023-05-09T16:51:23.770Z,2.13
2023-05-09T16:53:51.437Z,2.88
2023-05-09T16:56:20.978Z,3.53
2023-05-09T16:58:49.281Z,3.10
2023-05-09T17:01:16.952Z,2.30
2023-05-09T17:03:44.611Z,1.95
2023-05-09T17:06:12.246Z,1.90
2023-05-09T17:08:39.766Z,2.20
2023-05-09T17:11:09.677Z,3.60
2023-05-09T17:13:37.316Z,2.90
2023-05-09T17:16:04.917Z,2.97
2023-05-09T17:18:37.382Z,5.45
2023-05-09T17:21:06.677Z,2.20
2023-05-09T17:23:34.220Z,2.80
2023-05-09T17:26:01.826Z,3.72
2023-05-09T17:28:29.336Z,4.13
2023-05-09T17:31:03.647Z,5.70
2023-05-09T17:33:34.653Z,3.88
2023-05-09T17:36:02.545Z,3.13
2023-05-09T17:38:35.067Z,2.75
2023-05-09T17:41:02.473Z,1.95
2023-05-09T17:43:30.961Z,2.00
2023-05-09T17:45:58.933Z,6.32
2023-05-09T17:48:26.656Z,2.92
2023-05-09T17:50:54.429Z,1.48
2023-05-09T17:53:22.090Z,2.60
2023-05-09T17:55:49.626Z,1.40
2023-05-09T17:58:17.147Z,2.58
2023-05-09T18:00:44.681Z,2.00
2023-05-09T18:03:12.248Z,2.58
2023-05-09T18:05:40.096Z,1.42
2023-05-09T18:08:07.683Z,1.33
2023-05-09T18:10:35.194Z,2.13
2023-05-09T18:13:03.387Z,2.28
2023-05-09T18:15:31.899Z,1.88
2023-05-09T18:17:59.450Z,2.22
2023-05-09T18:20:26.970Z,1.98
2023-05-09T18:22:55.135Z,3.15
2023-05-09T18:25:22.831Z,3.05
2023-05-09T18:27:50.312Z,1.88
2023-05-09T18:30:18.514Z,3.05
2023-05-09T18:32:46.007Z,1.95
2023-05-09T18:35:13.854Z,2.03
2023-05-09T18:37:41.772Z,0.93
2023-05-09T18:40:14.739Z,1.58
2023-05-09T18:42:42.634Z,1.83
2023-05-09T18:45:13.733Z,2.08
2023-05-09T18:47:41.349Z,1.20
2023-05-09T18:50:09.245Z,0.93
2023-05-09T18:52:37.420Z,1.50
2023-05-09T18:55:05.890Z,2.38
2023-05-09T18:57:33.817Z,1.38
2023-05-09T19:00:01.538Z,1.30
2023-05-09T19:02:30.067Z,0.88
2023-05-09T19:04:57.724Z,0.85
2023-05-09T19:07:25.350Z,1.45
2023-05-09T19:09:52.900Z,0.60
2023-05-09T19:12:20.451Z,0.77
2023-05-09T19:14:48.113Z,2.67
2023-05-09T19:17:15.618Z,1.67
2023-05-09T19:19:43.108Z,1.25
2023-05-09T19:22:10.687Z,0.98
2023-05-09T19:24:38.237Z,1.58
2023-05-09T19:27:07.483Z,1.83
2023-05-09T19:29:35.234Z,0.90
2023-05-09T19:32:02.825Z,1.50
2023-05-09T19:34:30.563Z,1.52
2023-05-09T19:36:58.063Z,1.63
2023-05-09T19:39:25.712Z,0.52
2023-05-09T19:41:53.200Z,3.17
2023-05-09T19:44:20.729Z,0.73
2023-05-09T19:46:48.349Z,1.13
2023-05-09T19:49:17.199Z,1.65
2023-05-09T19:51:45.662Z,0.70
2023-05-09T19:54:14.124Z,1.52
2023-05-09T19:56:41.926Z,0.95
2023-05-09T19:59:09.411Z,0.98
2023-05-09T20:01:36.941Z,0.68
2023-05-09T20:04:05.054Z,1.00
2023-05-09T20:06:32.728Z,2.05
2023-05-09T20:09:00.260Z,0.90
2023-05-09T20:11:27.775Z,1.58
2023-05-09T20:13:55.772Z,0.73
2023-05-09T20:16:23.563Z,1.55
2023-05-09T20:18:52.299Z,0.60
2023-05-09T20:21:19.812Z,0.57
2023-05-09T20:23:47.326Z,1.27
2023-05-09T20:26:14.947Z,1.00
2023-05-09T20:28:42.539Z,0.43
2023-05-09T20:31:10.157Z,0.75
2023-05-09T20:33:37.739Z,0.40
2023-05-09T20:36:06.455Z,1.73
2023-05-09T20:38:34.211Z,3.13
2023-05-09T20:41:02.206Z,0.85
2023-05-09T20:43:36.173Z,1.10
2023-05-09T20:46:04.147Z,0.60
2023-05-09T20:48:32.082Z,2.13
2023-05-09T20:50:59.658Z,0.55
2023-05-09T20:53:31.555Z,0.40
2023-05-09T20:55:59.939Z,0.57
2023-05-09T20:58:31.038Z,1.05
2023-05-09T21:00:58.608Z,0.77
2023-05-09T21:03:26.132Z,0.68
2023-05-09T21:05:54.154Z,0.30
2023-05-09T21:08:21.741Z,0.50
2023-05-09T21:10:51.362Z,0.52
2023-05-09T21:13:19.122Z,0.35
2023-05-09T21:15:48.952Z,0.30
2023-05-09T21:18:16.515Z,0.35
2023-05-09T21:20:45.073Z,1.50
2023-05-09T21:23:12.650Z,1.65
2023-05-09T21:25:40.109Z,0.55
2023-05-09T21:28:07.649Z,0.32
2023-05-09T21:30:35.299Z,0.52
2023-05-09T21:33:04.023Z,0.50
2023-05-09T21:35:31.669Z,0.35
2023-05-09T21:37:59.262Z,0.45
2023-05-09T21:40:26.754Z,0.38
2023-05-09T21:42:54.293Z,2.70
2023-05-09T21:45:21.807Z,2.65
2023-05-09T21:47:49.354Z,0.90
2023-05-09T21:50:17.287Z,0.52
2023-05-09T21:52:45.062Z,0.43
2023-05-09T21:55:12.754Z,0.85
2023-05-09T21:57:40.264Z,0.63
2023-05-09T22:00:09.913Z,0.68
2023-05-09T22:02:43.514Z,0.50
2023-05-09T22:05:11.521Z,0.32
2023-05-09T22:07:39.117Z,0.98
2023-05-09T22:10:07.055Z,0.98
2023-05-09T22:12:34.559Z,0.52
2023-05-09T22:15:02.222Z,0.63
2023-05-09T22:17:29.758Z,0.68
2023-05-09T22:19:57.333Z,0.30
2023-05-09T22:22:24.901Z,0.95
2023-05-09T22:24:52.500Z,2.60
2023-05-09T22:27:20.039Z,0.93
2023-05-09T22:29:47.597Z,0.95
2023-05-09T22:32:15.172Z,0.50
2023-05-09T22:34:42.810Z,0.20
2023-05-09T22:37:10.378Z,0.38
2023-05-09T22:39:37.813Z,0.57
2023-05-09T22:42:05.318Z,0.52
2023-05-09T22:44:32.788Z,0.75
2023-05-09T22:47:00.427Z,0.63
2023-05-09T22:49:27.923Z,0.77
2023-05-09T22:51:55.383Z,0.68
2023-05-09T22:54:22.892Z,0.63
2023-05-09T22:56:50.424Z,0.93
2023-05-09T22:59:17.965Z,0.63
2023-05-09T23:01:45.492Z,1.80
2023-05-09T23:04:13.654Z,0.43
2023-05-09T23:06:41.082Z,0.65
2023-05-09T23:09:08.613Z,0.60
2023-05-09T23:11:36.362Z,1.80
2023-05-09T23:14:04.357Z,1.15
2023-05-09T23:16:31.850Z,1.00
2023-05-09T23:18:59.548Z,0.63
2023-05-09T23:21:27.049Z,1.05
2023-05-09T23:23:54.531Z,1.27
2023-05-09T23:26:22.156Z,0.50
2023-05-09T23:28:49.645Z,0.30
2023-05-09T23:31:17.113Z,1.33
2023-05-09T23:33:44.628Z,0.80
2023-05-09T23:36:12.097Z,0.30
2023-05-09T23:38:39.567Z,0.88
2023-05-09T23:41:07.256Z,0.50
2023-05-09T23:43:34.758Z,0.75
2023-05-09T23:46:02.358Z,0.73
2023-05-09T23:48:29.901Z,0.55
2023-05-09T23:50:57.467Z,1.42
2023-05-09T23:53:24.950Z,3.15
2023-05-09T23:55:52.509Z,1.67
2023-05-09T23:58:20.007Z,1.08
